createdAt,value
2018-12-22T00:01:05.949Z,81.65
2018-12-22T00:03:34.765Z,81.37
2018-12-22T00:06:04.181Z,81.01
2018-12-22T00:08:32.726Z,81.31
2018-12-22T00:11:02.624Z,80.77
2018-12-22T00:13:31.092Z,80.87
2018-12-22T00:15:59.579Z,81.28
2018-12-22T00:18:28.229Z,81.24
2018-12-22T00:20:56.761Z,80.63
2018-12-22T00:23:25.360Z,81.11
2018-12-22T00:25:53.907Z,80.73
2018-12-22T00:28:22.587Z,81.13
2018-12-22T00:30:51.273Z,81.19
2018-12-22T00:33:19.942Z,80.79
2018-12-22T00:35:48.424Z,80.17
2018-12-22T00:38:16.880Z,80.68
2018-12-22T00:40:45.436Z,80.55
2018-12-22T00:43:13.919Z,80.45
2018-12-22T00:45:42.411Z,80.81
2018-12-22T00:48:11.225Z,80.03
2018-12-22T00:50:40.068Z,80.33
2018-12-22T00:53:08.629Z,80.45
2018-12-22T00:55:37.128Z,81.05
2018-12-22T00:58:05.675Z,80.44
2018-12-22T01:00:34.178Z,80.22
2018-12-22T01:03:03.841Z,81.02
2018-12-22T01:05:32.315Z,81.06
2018-12-22T01:08:00.761Z,80.62
2018-12-22T01:10:31.350Z,80.53
2018-12-22T01:12:59.832Z,80.96
2018-12-22T01:15:28.351Z,80.44
2018-12-22T01:17:56.832Z,80.76
2018-12-22T01:20:25.426Z,80.94
2018-12-22T01:22:54.173Z,81.08
2018-12-22T01:25:22.655Z,80.57
2018-12-22T01:27:51.135Z,80.86
2018-12-22T01:30:20.330Z,80.76
2018-12-22T01:32:48.863Z,81.35
2018-12-22T01:35:18.177Z,81.59
2018-12-22T01:37:46.648Z,81.31
2018-12-22T01:40:15.268Z,81.58
2018-12-22T01:42:43.718Z,81.56
2018-12-22T01:45:12.284Z,80.95
2018-12-22T01:47:40.787Z,81.52
2018-12-22T01:50:09.495Z,81.02
2018-12-22T01:52:37.951Z,81.42
2018-12-22T01:55:07.142Z,81.60
2018-12-22T01:57:35.847Z,80.70
2018-12-22T02:00:05.058Z,81.32
2018-12-22T02:02:33.583Z,81.32
2018-12-22T02:05:04.184Z,81.23
2018-12-22T02:07:32.743Z,81.09
2018-12-22T02:10:02.640Z,80.59
2018-12-22T02:12:31.135Z,81.46
2018-12-22T02:14:59.591Z,81.10
2018-12-22T02:17:28.279Z,80.33
2018-12-22T02:19:56.787Z,81.16
2018-12-22T02:22:25.341Z,80.46
2018-12-22T02:24:54.029Z,81.15
2018-12-22T02:27:22.523Z,80.63
2018-12-22T02:29:51.000Z,80.61
2018-12-22T02:32:19.490Z,81.28
2018-12-22T02:34:48.074Z,81.01
2018-12-22T02:37:16.596Z,80.97
2018-12-22T02:39:45.159Z,81.34
2018-12-22T02:42:13.754Z,81.36
2018-12-22T02:44:42.374Z,81.63
2018-12-22T02:47:11.158Z,81.06
2018-12-22T02:49:39.635Z,81.61
2018-12-22T02:52:08.131Z,81.35
2018-12-22T02:54:36.998Z,81.57
2018-12-22T02:57:05.605Z,81.72
2018-12-22T02:59:34.109Z,82.38
2018-12-22T03:02:03.777Z,82.11
2018-12-22T03:04:32.419Z,82.07
2018-12-22T03:07:00.950Z,82.06
2018-12-22T03:09:29.900Z,82.07
2018-12-22T03:11:58.411Z,82.26
2018-12-22T03:14:26.869Z,82.68
2018-12-22T03:16:55.429Z,82.40
2018-12-22T03:19:24.018Z,82.83
2018-12-22T03:21:52.511Z,83.16
2018-12-22T03:24:21.453Z,82.59
2018-12-22T03:26:49.932Z,82.39
2018-12-22T03:29:18.427Z,82.35
2018-12-22T03:31:46.907Z,82.56
2018-12-22T03:34:15.679Z,82.79
2018-12-22T03:36:44.251Z,83.36
2018-12-22T03:39:12.724Z,82.43
2018-12-22T03:41:41.472Z,82.46
2018-12-22T03:44:10.520Z,82.80
2018-12-22T03:46:39.036Z,82.73
2018-12-22T03:49:07.996Z,83.12
2018-12-22T03:51:36.497Z,82.84
2018-12-22T03:54:06.624Z,83.73
2018-12-22T03:56:35.442Z,83.63
2018-12-22T03:59:05.238Z,83.85
2018-12-22T04:01:34.255Z,83.22
2018-12-22T04:04:03.849Z,84.04
2018-12-22T04:06:35.203Z,84.07
2018-12-22T04:09:09.115Z,83.46
2018-12-22T04:11:37.259Z,84.21
2018-12-22T04:14:06.338Z,84.39
2018-12-22T04:16:35.419Z,84.26
2018-12-22T04:19:06.242Z,83.77
2018-12-22T04:21:34.736Z,84.59
2018-12-22T04:24:07.385Z,84.49
2018-12-22T04:26:35.830Z,84.11
2018-12-22T04:29:05.498Z,84.74
2018-12-22T04:31:34.037Z,83.92
2018-12-22T04:34:04.101Z,84.05
2018-12-22T04:36:32.687Z,84.18
2018-12-22T04:39:02.812Z,84.94
2018-12-22T04:41:31.529Z,83.77
2018-12-22T04:44:00.099Z,84.45
2018-12-22T04:46:28.663Z,84.86
2018-12-22T04:48:57.169Z,84.80
2018-12-22T04:51:25.642Z,84.43
2018-12-22T04:53:54.206Z,84.92
2018-12-22T04:56:22.820Z,84.57
2018-12-22T04:58:51.489Z,84.42
2018-12-22T05:01:20.196Z,84.72
2018-12-22T05:03:48.686Z,84.30
2018-12-22T05:06:17.158Z,84.49
2018-12-22T05:08:45.934Z,84.40
2018-12-22T05:11:14.402Z,85.01
2018-12-22T05:13:42.951Z,84.69
2018-12-22T05:16:11.449Z,84.41
2018-12-22T05:18:40.316Z,84.48
2018-12-22T05:21:08.915Z,85.44
2018-12-22T05:23:37.529Z,85.19
2018-12-22T05:26:06.026Z,85.19
2018-12-22T05:28:34.496Z,84.81
2018-12-22T05:31:04.552Z,85.21
2018-12-22T05:33:33.031Z,84.41
2018-12-22T05:36:03.083Z,85.16
2018-12-22T05:38:31.586Z,84.72
2018-12-22T05:41:00.046Z,85.20
2018-12-22T05:43:28.795Z,85.44
2018-12-22T05:45:57.319Z,84.64
2018-12-22T05:48:25.801Z,85.36
2018-12-22T05:50:54.303Z,85.40
2018-12-22T05:53:22.876Z,84.80
2018-12-22T05:55:51.476Z,85.21
2018-12-22T05:58:21.015Z,85.46
2018-12-22T06:00:49.810Z,84.98
2018-12-22T06:03:19.343Z,85.31
2018-12-22T06:05:47.868Z,84.89
2018-12-22T06:08:16.397Z,84.70
2018-12-22T06:10:45.262Z,84.70
2018-12-22T06:13:13.877Z,85.11
2018-12-22T06:15:42.356Z,84.25
2018-12-22T06:18:10.854Z,84.52
2018-12-22T06:20:39.412Z,84.03
2018-12-22T06:23:07.889Z,83.18
2018-12-22T06:25:36.612Z,83.22
2018-12-22T06:28:05.122Z,82.89
2018-12-22T06:30:33.650Z,82.61
2018-12-22T06:33:03.336Z,82.71
2018-12-22T06:35:31.903Z,82.08
2018-12-22T06:38:00.365Z,82.45
2018-12-22T06:40:28.860Z,83.16
2018-12-22T06:42:57.663Z,82.79
2018-12-22T06:45:26.181Z,82.98
2018-12-22T06:47:54.738Z,82.51
2018-12-22T06:50:23.289Z,82.33
2018-12-22T06:52:51.790Z,82.44
2018-12-22T06:55:20.283Z,82.73
2018-12-22T06:57:48.765Z,82.37
2018-12-22T07:00:17.909Z,82.88
2018-12-22T07:02:46.945Z,82.74
2018-12-22T07:05:15.491Z,82.45
2018-12-22T07:07:44.186Z,82.91
2018-12-22T07:10:12.956Z,83.30
2018-12-22T07:12:41.777Z,82.39
2018-12-22T07:15:10.388Z,82.05
2018-12-22T07:17:39.084Z,82.68
2018-12-22T07:20:07.611Z,82.42
2018-12-22T07:22:36.089Z,81.92
2018-12-22T07:25:05.393Z,81.74
2018-12-22T07:27:34.006Z,82.40
2018-12-22T07:30:03.818Z,82.11
2018-12-22T07:32:32.312Z,82.57
2018-12-22T07:35:00.821Z,82.90
2018-12-22T07:37:29.329Z,82.16
2018-12-22T07:39:57.847Z,82.92
2018-12-22T07:42:26.446Z,82.67
2018-12-22T07:44:54.932Z,82.90
2018-12-22T07:47:23.409Z,82.85
2018-12-22T07:49:51.917Z,83.36
2018-12-22T07:52:20.402Z,83.19
2018-12-22T07:54:49.050Z,83.26
2018-12-22T07:57:17.566Z,83.52
2018-12-22T07:59:46.029Z,83.28
2018-12-22T08:02:14.507Z,83.03
2018-12-22T08:04:43.004Z,83.04
2018-12-22T08:07:11.480Z,83.36
2018-12-22T08:09:40.311Z,83.06
2018-12-22T08:12:08.797Z,83.34
2018-12-22T08:14:37.529Z,83.33
2018-12-22T08:17:06.090Z,83.12
2018-12-22T08:19:34.700Z,83.70
2018-12-22T08:22:05.469Z,83.02
2018-12-22T08:24:34.166Z,83.12
2018-12-22T08:27:03.733Z,83.27
2018-12-22T08:29:32.223Z,83.47
2018-12-22T08:32:00.698Z,83.08
2018-12-22T08:34:29.179Z,82.93
2018-12-22T08:36:57.687Z,83.53
2018-12-22T08:39:26.186Z,82.88
2018-12-22T08:41:54.799Z,83.29
2018-12-22T08:44:23.347Z,83.16
2018-12-22T08:46:51.950Z,83.32
2018-12-22T08:49:20.457Z,82.73
2018-12-22T08:51:48.983Z,82.72
2018-12-22T08:54:17.516Z,82.88
2018-12-22T08:56:46.087Z,83.60
2018-12-22T08:59:14.618Z,83.16
2018-12-22T09:01:43.130Z,83.64
2018-12-22T09:04:11.817Z,83.54
2018-12-22T09:06:40.352Z,83.79
2018-12-22T09:09:10.584Z,83.65
2018-12-22T09:11:39.057Z,83.37
2018-12-22T09:14:07.820Z,83.23
2018-12-22T09:16:36.311Z,83.41
2018-12-22T09:19:05.910Z,82.96
2018-12-22T09:21:34.545Z,82.82
2018-12-22T09:24:05.380Z,82.83
2018-12-22T09:26:33.925Z,83.62
2018-12-22T09:29:04.346Z,83.07
2018-12-22T09:31:33.214Z,83.69
2018-12-22T09:34:13.063Z,83.06
2018-12-22T09:36:35.518Z,82.68
2018-12-22T09:39:08.211Z,83.34
2018-12-22T09:41:36.703Z,83.36
2018-12-22T09:44:05.932Z,83.09
2018-12-22T09:46:34.429Z,82.91
2018-12-22T09:49:05.398Z,83.36
2018-12-22T09:51:34.413Z,83.33
2018-12-22T09:54:07.934Z,83.58
2018-12-22T09:56:36.428Z,83.35
2018-12-22T09:59:06.549Z,83.65
2018-12-22T10:01:35.509Z,83.70
2018-12-22T10:04:05.155Z,83.54
2018-12-22T10:06:33.745Z,83.83
2018-12-22T10:09:05.435Z,83.55
2018-12-22T10:11:34.077Z,83.18
2018-12-22T10:14:04.311Z,82.73
2018-12-22T10:16:32.862Z,83.17
2018-12-22T10:19:03.087Z,82.32
2018-12-22T10:21:33.266Z,82.21
2018-12-22T10:24:03.200Z,82.63
2018-12-22T10:26:31.698Z,82.08
2018-12-22T10:29:00.272Z,82.19
2018-12-22T10:31:28.788Z,82.08
2018-12-22T10:33:58.115Z,81.78
2018-12-22T10:36:26.975Z,82.19
2018-12-22T10:38:55.581Z,82.38
2018-12-22T10:41:24.151Z,82.07
2018-12-22T10:43:52.618Z,82.45
2018-12-22T10:46:21.714Z,82.36
2018-12-22T10:48:50.218Z,82.26
2018-12-22T10:51:24.200Z,81.80
2018-12-22T10:53:49.678Z,81.31
2018-12-22T10:56:18.743Z,81.52
2018-12-22T10:58:47.290Z,80.86
2018-12-22T11:01:15.819Z,81.53
2018-12-22T11:03:44.340Z,81.45
2018-12-22T11:06:12.948Z,80.89
2018-12-22T11:08:42.009Z,80.99
2018-12-22T11:11:10.723Z,81.14
2018-12-22T11:13:39.239Z,80.33
2018-12-22T11:16:07.771Z,80.19
2018-12-22T11:18:36.414Z,80.57
2018-12-22T11:21:07.066Z,80.57
2018-12-22T11:23:35.633Z,81.08
2018-12-22T11:26:05.181Z,80.67
2018-12-22T11:28:33.713Z,80.93
2018-12-22T11:31:04.237Z,80.14
2018-12-22T11:33:32.825Z,80.15
2018-12-22T11:36:02.846Z,79.24
2018-12-22T11:38:31.423Z,79.08
2018-12-22T11:41:00.024Z,79.23
2018-12-22T11:43:28.519Z,79.23
2018-12-22T11:46:05.086Z,78.88
2018-12-22T11:48:39.667Z,78.29
2018-12-22T11:51:08.917Z,78.41
2018-12-22T11:53:38.454Z,77.57
2018-12-22T11:56:06.948Z,76.35
2018-12-22T11:58:35.419Z,76.70
2018-12-22T12:01:04.814Z,76.32
2018-12-22T12:03:33.319Z,75.71
2018-12-22T12:06:02.425Z,75.96
2018-12-22T12:08:30.974Z,76.28
2018-12-22T12:11:00.556Z,75.75
2018-12-22T12:13:29.276Z,75.67
2018-12-22T12:16:21.201Z,76.03
2018-12-22T12:19:09.170Z,75.74
2018-12-22T12:21:37.631Z,77.06
2018-12-22T12:24:06.083Z,77.28
2018-12-22T12:26:34.594Z,78.30
2018-12-22T12:29:04.094Z,79.03
2018-12-22T12:31:32.591Z,78.46
2018-12-22T12:34:02.837Z,78.63
2018-12-22T12:36:31.318Z,79.74
2018-12-22T12:38:59.892Z,78.94
2018-12-22T12:41:28.510Z,78.43
2018-12-22T12:43:56.988Z,78.38
2018-12-22T12:46:31.961Z,78.89
2018-12-22T12:49:00.473Z,78.24
2018-12-22T12:51:29.074Z,76.70
2018-12-22T12:53:57.579Z,76.75
2018-12-22T12:56:26.375Z,77.14
2018-12-22T12:58:54.961Z,76.92
2018-12-22T13:01:24.414Z,76.24
2018-12-22T13:03:53.161Z,76.32
2018-12-22T13:06:22.067Z,76.29
2018-12-22T13:08:50.571Z,76.30
2018-12-22T13:11:19.062Z,76.44
2018-12-22T13:13:53.953Z,76.06
2018-12-22T13:16:22.444Z,77.85
2018-12-22T13:18:50.918Z,77.67
2018-12-22T13:21:19.654Z,76.13
2018-12-22T13:23:48.252Z,76.59
2018-12-22T13:26:16.726Z,77.66
2018-12-22T13:28:45.248Z,76.42
2018-12-22T13:31:14.843Z,76.27
2018-12-22T13:33:43.371Z,75.80
2018-12-22T13:36:11.866Z,75.31
2018-12-22T13:38:45.555Z,75.00
2018-12-22T13:41:14.159Z,75.19
2018-12-22T13:43:42.952Z,74.09
2018-12-22T13:46:13.157Z,73.74
2018-12-22T13:48:41.814Z,73.31
2018-12-22T13:51:10.772Z,74.17
2018-12-22T13:53:39.494Z,73.25
2018-12-22T13:56:07.988Z,72.77
2018-12-22T13:58:36.484Z,72.67
2018-12-22T14:01:10.671Z,73.64
2018-12-22T14:03:41.876Z,73.49
2018-12-22T14:06:17.006Z,71.92
2018-12-22T14:08:45.740Z,71.67
2018-12-22T14:11:14.502Z,72.67
2018-12-22T14:13:42.961Z,72.14
2018-12-22T14:16:17.159Z,72.57
2018-12-22T14:18:54.874Z,71.44
2018-12-22T14:21:23.366Z,72.44
2018-12-22T14:24:12.935Z,71.56
2018-12-22T14:26:41.509Z,72.33
2018-12-22T14:29:09.967Z,71.70
2018-12-22T14:31:38.455Z,71.70
2018-12-22T14:34:11.710Z,73.09
2018-12-22T14:36:40.178Z,73.21
2018-12-22T14:39:09.315Z,73.06
2018-12-22T14:41:37.811Z,72.95
2018-12-22T14:44:06.499Z,72.99
2018-12-22T14:46:35.863Z,73.30
2018-12-22T14:49:05.251Z,73.35
2018-12-22T14:51:33.709Z,74.12
2018-12-22T14:54:03.863Z,74.43
2018-12-22T14:56:37.005Z,74.10
2018-12-22T14:59:06.101Z,74.68
2018-12-22T15:01:34.609Z,74.73
2018-12-22T15:04:04.787Z,73.45
2018-12-22T15:06:33.511Z,73.67
2018-12-22T15:09:03.105Z,73.66
2018-12-22T15:11:31.599Z,73.83
2018-12-22T15:14:00.098Z,73.41
2018-12-22T15:16:30.467Z,74.12
2018-12-22T15:18:59.303Z,73.59
2018-12-22T15:21:27.943Z,74.03
2018-12-22T15:23:56.714Z,74.26
2018-12-22T15:26:25.668Z,74.61
2018-12-22T15:28:54.161Z,74.73
2018-12-22T15:31:22.724Z,73.85
2018-12-22T15:33:51.350Z,73.55
2018-12-22T15:36:19.926Z,73.50
2018-12-22T15:38:48.432Z,74.03
2018-12-22T15:41:16.935Z,74.56
2018-12-22T15:43:45.392Z,74.36
2018-12-22T15:46:13.994Z,74.48
2018-12-22T15:48:42.514Z,74.03
2018-12-22T15:51:11.004Z,74.41
2018-12-22T15:53:39.469Z,74.51
2018-12-22T15:56:07.947Z,74.59
2018-12-22T15:58:36.768Z,75.77
2018-12-22T16:01:06.038Z,75.36
2018-12-22T16:03:34.530Z,74.84
2018-12-22T16:06:05.172Z,74.30
2018-12-22T16:08:33.733Z,74.88
2018-12-22T16:11:04.006Z,74.52
2018-12-22T16:13:32.890Z,75.29
2018-12-22T16:16:03.678Z,75.61
2018-12-22T16:18:32.162Z,75.91
2018-12-22T16:21:00.634Z,76.23
2018-12-22T16:23:29.113Z,76.30
2018-12-22T16:25:57.697Z,76.66
2018-12-22T16:28:29.375Z,76.24
2018-12-22T16:30:59.205Z,76.07
2018-12-22T16:33:27.784Z,76.00
2018-12-22T16:35:56.340Z,76.37
2018-12-22T16:38:24.941Z,76.68
2018-12-22T16:40:53.517Z,77.09
2018-12-22T16:43:22.088Z,76.54
2018-12-22T16:45:52.067Z,75.95
2018-12-22T16:48:23.000Z,75.47
2018-12-22T16:50:51.645Z,76.08
2018-12-22T16:53:20.264Z,75.44
2018-12-22T16:55:48.780Z,75.26
2018-12-22T16:58:22.394Z,75.75
2018-12-22T17:01:16.637Z,75.10
2018-12-22T17:03:45.440Z,75.13
2018-12-22T17:06:15.275Z,74.97
2018-12-22T17:08:44.044Z,75.57
2018-12-22T17:11:12.629Z,74.72
2018-12-22T17:13:41.609Z,74.08
2018-12-22T17:16:11.114Z,74.61
2018-12-22T17:18:39.619Z,74.60
2018-12-22T17:21:20.192Z,74.29
2018-12-22T17:23:54.638Z,74.65
2018-12-22T17:26:25.115Z,74.81
2018-12-22T17:28:53.622Z,74.78
2018-12-22T17:31:22.092Z,74.60
2018-12-22T17:33:50.646Z,75.05
2018-12-22T17:36:19.351Z,74.83
2018-12-22T17:38:47.924Z,74.97
2018-12-22T17:41:16.427Z,75.44
2018-12-22T17:43:46.868Z,75.76
2018-12-22T17:46:15.793Z,75.41
2018-12-22T17:48:44.301Z,75.10
2018-12-22T17:51:12.937Z,75.37
2018-12-22T17:53:41.492Z,75.78
2018-12-22T17:56:10.108Z,75.46
2018-12-22T17:58:38.691Z,76.06
2018-12-22T18:01:07.256Z,75.63
2018-12-22T18:03:42.645Z,75.52
2018-12-22T18:06:11.122Z,75.29
2018-12-22T18:08:40.134Z,75.78
2018-12-22T18:11:08.670Z,75.96
2018-12-22T18:13:37.193Z,76.32
2018-12-22T18:16:05.708Z,76.61
2018-12-22T18:18:34.453Z,76.58
2018-12-22T18:21:04.600Z,76.33
2018-12-22T18:23:33.151Z,76.87
2018-12-22T18:26:03.679Z,77.14
2018-12-22T18:28:32.191Z,77.54
2018-12-22T18:31:00.673Z,77.54
2018-12-22T18:33:35.902Z,76.92
2018-12-22T18:35:59.917Z,76.86
2018-12-22T18:38:28.642Z,77.95
2018-12-22T18:40:57.170Z,78.46
2018-12-22T18:43:26.130Z,77.82
2018-12-22T18:45:54.667Z,78.80
2018-12-22T18:48:23.516Z,78.94
2018-12-22T18:50:52.076Z,79.38
2018-12-22T18:53:20.591Z,79.30
2018-12-22T18:55:49.096Z,79.68
2018-12-22T18:58:17.668Z,79.77
2018-12-22T19:00:46.145Z,79.85
2018-12-22T19:03:14.720Z,80.33
2018-12-22T19:05:43.231Z,80.85
2018-12-22T19:08:14.912Z,80.30
2018-12-22T19:10:53.751Z,80.33
2018-12-22T19:13:22.437Z,80.45
2018-12-22T19:15:50.945Z,80.94
2018-12-22T19:18:19.449Z,80.90
2018-12-22T19:20:53.798Z,81.60
2018-12-22T19:23:24.364Z,80.98
2018-12-22T19:25:53.077Z,80.54
2018-12-22T19:28:21.562Z,80.82
2018-12-22T19:30:50.085Z,80.78
2018-12-22T19:33:19.311Z,80.89
2018-12-22T19:35:47.844Z,80.81
2018-12-22T19:38:17.256Z,81.51
2018-12-22T19:40:46.193Z,81.17
2018-12-22T19:43:14.923Z,81.55
2018-12-22T19:45:43.452Z,81.68
2018-12-22T19:48:12.019Z,80.93
2018-12-22T19:50:40.688Z,81.17
2018-12-22T19:53:09.566Z,81.63
2018-12-22T19:55:38.152Z,81.67
2018-12-22T19:58:07.350Z,81.92
2018-12-22T20:00:35.970Z,81.51
2018-12-22T20:03:05.257Z,82.02
2018-12-22T20:05:33.968Z,82.36
2018-12-22T20:08:03.736Z,82.26
2018-12-22T20:10:32.522Z,82.29
2018-12-22T20:13:02.802Z,82.15
2018-12-22T20:15:31.430Z,82.50
2018-12-22T20:18:00.114Z,82.56
2018-12-22T20:20:29.713Z,82.34
2018-12-22T20:22:58.490Z,82.06
2018-12-22T20:25:27.013Z,82.56
2018-12-22T20:27:55.521Z,82.32
2018-12-22T20:30:25.091Z,82.20
2018-12-22T20:32:53.658Z,82.38
2018-12-22T20:35:22.203Z,82.89
2018-12-22T20:37:50.898Z,82.62
2018-12-22T20:40:19.500Z,82.59
2018-12-22T20:42:48.085Z,82.60
2018-12-22T20:45:16.598Z,82.68
2018-12-22T20:47:45.159Z,83.38
2018-12-22T20:50:13.861Z,82.62
2018-12-22T20:52:42.503Z,81.99
2018-12-22T20:55:11.103Z,82.66
2018-12-22T20:57:40.206Z,82.59
2018-12-22T21:00:09.677Z,82.24
2018-12-22T21:02:38.654Z,82.49
2018-12-22T21:05:07.430Z,81.91
2018-12-22T21:07:36.038Z,82.47
2018-12-22T21:10:05.169Z,82.32
2018-12-22T21:12:33.708Z,82.60
2018-12-22T21:15:04.039Z,82.99
2018-12-22T21:17:32.591Z,82.08
2018-12-22T21:20:02.731Z,81.99
2018-12-22T21:22:31.298Z,82.66
2018-12-22T21:25:00.418Z,82.30
2018-12-22T21:27:28.949Z,82.03
2018-12-22T21:29:57.577Z,82.88
2018-12-22T21:32:26.112Z,82.92
2018-12-22T21:34:54.659Z,82.83
2018-12-22T21:37:23.206Z,82.39
2018-12-22T21:39:51.814Z,82.59
2018-12-22T21:42:20.374Z,83.02
2018-12-22T21:44:48.899Z,83.09
2018-12-22T21:47:17.460Z,82.74
2018-12-22T21:49:46.000Z,83.26
2018-12-22T21:52:14.493Z,82.53
2018-12-22T21:54:43.911Z,83.03
2018-12-22T21:57:12.454Z,83.09
2018-12-22T21:59:41.228Z,83.18
2018-12-22T22:02:09.761Z,82.47
2018-12-22T22:04:38.294Z,82.43
2018-12-22T22:07:06.812Z,82.92
2018-12-22T22:09:35.738Z,81.92
2018-12-22T22:12:06.061Z,81.93
2018-12-22T22:14:34.841Z,81.95
2018-12-22T22:17:05.731Z,82.57
2018-12-22T22:19:35.964Z,82.64
2018-12-22T22:22:05.480Z,82.42
2018-12-22T22:24:34.144Z,82.43
2018-12-22T22:27:04.093Z,82.10
2018-12-22T22:29:32.635Z,81.85
2018-12-22T22:32:03.275Z,82.12
2018-12-22T22:34:31.839Z,82.26
2018-12-22T22:37:00.586Z,82.01
2018-12-22T22:39:29.093Z,82.27
2018-12-22T22:41:57.603Z,82.13
2018-12-22T22:44:26.127Z,82.71
2018-12-22T22:46:54.654Z,82.51
2018-12-22T22:49:23.527Z,82.66
2018-12-22T22:51:52.500Z,82.46
2018-12-22T22:54:21.076Z,82.65
2018-12-22T22:56:49.622Z,82.49
2018-12-22T22:59:18.149Z,83.30
2018-12-22T23:01:47.079Z,82.72
2018-12-22T23:04:15.554Z,83.02
2018-12-22T23:06:44.054Z,83.34
2018-12-22T23:09:12.553Z,83.30
2018-12-22T23:11:41.060Z,83.35
2018-12-22T23:14:09.512Z,82.71
2018-12-22T23:16:38.171Z,82.83
2018-12-22T23:19:06.743Z,82.59
2018-12-22T23:21:35.755Z,82.90
2018-12-22T23:24:05.650Z,82.64
2018-12-22T23:26:34.155Z,83.22
2018-12-22T23:29:04.224Z,82.74
2018-12-22T23:31:32.797Z,82.65
2018-12-22T23:34:03.636Z,83.01
2018-12-22T23:36:32.087Z,82.64
2018-12-22T23:39:00.585Z,82.62
2018-12-22T23:41:29.089Z,83.32
2018-12-22T23:43:57.574Z,82.91
2018-12-22T23:46:26.088Z,83.00
2018-12-22T23:48:54.568Z,83.26
2018-12-22T23:51:23.066Z,82.75
2018-12-22T23:53:51.689Z,82.69
2018-12-22T23:56:20.324Z,82.85
2018-12-22T23:58:48.874Z,83.03
